Time;durP1;ratioP1;P1;durP2;ratioP2;P2;SDS_P1;SDS_P2;PMS_P1;PMS_P2;Temp;Humidity;BMP_temperature;BMP_pressure;BME280_temperature;BME280_humidity;BME280_pressure;Samples;Min_cycle;Max_cycle;Signal;HPM_P1;HPM_P2
2024/01/01 00:01:24;;;;;;;18.52;11.57;;;7.40;89.80;;;;;;5116388;27;20355;-48
2024/01/01 00:03:50;;;;;;;16.38;10.18;;;7.40;89.60;;;;;;5112396;27;20023;-51
2024/01/01 00:06:17;;;;;;;19.35;10.27;;;7.40;89.40;;;;;;5116295;27;20453;-50
2024/01/01 00:08:44;;;;;;;18.13;9.13;;;7.40;89.20;;;;;;5123934;27;20097;-48
2024/01/01 00:11:10;;;;;;;22.15;10.95;;;7.50;89.30;;;;;;5126890;27;20096;-50
2024/01/01 00:13:36;;;;;;;20.80;10.40;;;7.50;89.30;;;;;;5134230;27;20386;-48
2024/01/01 00:16:03;;;;;;;13.52;9.13;;;7.50;89.40;;;;;;5133819;27;20027;-51
2024/01/01 00:18:30;;;;;;;16.40;9.40;;;7.50;89.40;;;;;;5100501;28;20356;-49
2024/01/01 00:20:55;;;;;;;17.58;10.77;;;7.50;89.40;;;;;;5113292;28;20111;-50
2024/01/01 00:23:22;;;;;;;23.83;10.27;;;7.50;89.40;;;;;;5095353;28;20106;-47
2024/01/01 00:25:49;;;;;;;18.27;10.02;;;7.50;89.40;;;;;;5098808;28;20019;-47
2024/01/01 00:28:14;;;;;;;17.00;9.05;;;7.40;89.30;;;;;;5121566;27;20328;-52
2024/01/01 00:30:41;;;;;;;18.58;9.77;;;7.40;89.40;;;;;;5131777;27;20027;-49
2024/01/01 00:33:10;;;;;;;18.63;9.30;;;7.40;89.30;;;;;;5125672;27;20080;-48
2024/01/01 00:35:37;;;;;;;16.63;10.57;;;7.40;89.50;;;;;;5114254;27;20043;-49
2024/01/01 00:38:04;;;;;;;18.38;9.18;;;7.40;89.60;;;;;;5109152;27;20031;-52
2024/01/01 00:40:33;;;;;;;20.58;10.32;;;7.30;89.80;;;;;;5117790;27;20525;-50
2024/01/01 00:42:59;;;;;;;18.35;9.35;;;7.40;90.10;;;;;;5119133;27;20024;-52
2024/01/01 00:45:26;;;;;;;17.27;8.15;;;7.30;90.30;;;;;;5129831;27;20031;-54
2024/01/01 00:47:53;;;;;;;18.73;7.82;;;7.30;90.40;;;;;;5122855;27;20459;-52
2024/01/01 00:50:19;;;;;;;17.58;7.05;;;7.30;90.50;;;;;;5117958;27;20496;-51
2024/01/01 00:52:48;;;;;;;16.55;9.55;;;7.30;90.60;;;;;;5120029;27;20046;-52
2024/01/01 00:55:15;;;;;;;19.52;8.65;;;7.30;90.70;;;;;;5109905;28;20027;-51
2024/01/01 00:57:41;;;;;;;14.25;7.93;;;7.30;90.70;;;;;;5123952;27;20073;-48
2024/01/01 01:00:11;;;;;;;14.55;8.15;;;7.30;90.50;;;;;;5119250;27;20444;-51
2024/01/01 01:02:38;;;;;;;15.93;8.68;;;7.30;90.60;;;;;;5112326;28;20031;-52
2024/01/01 01:05:05;;;;;;;21.30;9.20;;;7.20;90.60;;;;;;5120134;27;20035;-49
2024/01/01 01:07:32;;;;;;;15.43;8.35;;;7.20;90.60;;;;;;5090672;28;20055;-52
2024/01/01 01:09:59;;;;;;;16.65;9.32;;;7.20;90.50;;;;;;5100528;27;20047;-48
2024/01/01 01:12:25;;;;;;;16.13;8.63;;;7.20;90.50;;;;;;5112878;28;20020;-52
2024/01/01 01:14:52;;;;;;;15.20;8.25;;;7.10;90.80;;;;;;5104498;28;20029;-48
2024/01/01 01:17:19;;;;;;;20.40;11.82;;;7.20;91.00;;;;;;5128135;27;20046;-53
2024/01/01 01:19:46;;;;;;;17.13;9.23;;;7.20;91.10;;;;;;5110543;28;20035;-63
2024/01/01 01:22:12;;;;;;;15.00;8.07;;;7.20;91.20;;;;;;5112888;28;20447;-62
2024/01/01 01:24:39;;;;;;;20.55;9.77;;;7.30;91.40;;;;;;5110687;28;20031;-60
2024/01/01 01:27:04;;;;;;;16.80;8.27;;;7.30;91.70;;;;;;5105264;28;20355;-57
2024/01/01 01:29:31;;;;;;;13.05;7.10;;;7.20;92.00;;;;;;5129644;28;20027;-56
2024/01/01 01:31:57;;;;;;;16.98;9.20;;;7.30;92.20;;;;;;5109050;28;20066;-53
2024/01/01 01:34:24;;;;;;;13.90;7.82;;;7.30;92.30;;;;;;5114689;28;20015;-54
2024/01/01 01:36:51;;;;;;;17.02;7.43;;;7.30;92.30;;;;;;5114622;28;20026;-55
2024/01/01 01:39:18;;;;;;;14.85;7.10;;;7.20;92.30;;;;;;5121624;28;20540;-54
2024/01/01 01:41:49;;;;;;;20.52;8.00;;;7.30;92.30;;;;;;5103995;28;20031;-55
2024/01/01 01:44:16;;;;;;;17.65;8.55;;;7.30;92.30;;;;;;5112462;28;20032;-53
2024/01/01 01:46:42;;;;;;;18.35;7.70;;;7.20;92.20;;;;;;5112502;28;20035;-51
2024/01/01 01:49:10;;;;;;;19.65;7.57;;;7.30;92.10;;;;;;5107021;28;20616;-53
2024/01/01 01:51:37;;;;;;;13.43;7.78;;;7.30;92.00;;;;;;5128575;27;20484;-51
2024/01/01 01:54:03;;;;;;;16.85;7.35;;;7.30;91.90;;;;;;5124574;28;20076;-51
2024/01/01 01:56:31;;;;;;;16.45;9.30;;;7.30;91.90;;;;;;5101874;28;20527;-54
2024/01/01 01:58:58;;;;;;;10.65;7.57;;;7.30;91.80;;;;;;5138464;27;20337;-51
2024/01/01 02:01:29;;;;;;;13.63;8.07;;;7.30;91.70;;;;;;5113441;28;20023;-49
2024/01/01 02:03:56;;;;;;;17.90;7.80;;;7.30;91.70;;;;;;5096720;28;20173;-54
2024/01/01 02:06:26;;;;;;;19.10;8.77;;;7.30;91.40;;;;;;5113997;27;20028;-49
2024/01/01 02:08:53;;;;;;;14.75;8.60;;;7.40;91.30;;;;;;5136103;27;20495;-50
2024/01/01 02:11:19;;;;;;;12.40;7.30;;;7.40;91.20;;;;;;5109022;28;20440;-53
2024/01/01 02:13:46;;;;;;;17.27;8.82;;;7.40;90.80;;;;;;5140895;27;20025;-53
2024/01/01 02:16:17;;;;;;;16.25;8.93;;;7.50;90.50;;;;;;5129241;27;20126;-52
2024/01/01 02:18:43;;;;;;;18.52;8.45;;;7.40;90.40;;;;;;5116028;27;20030;-48
2024/01/01 02:21:10;;;;;;;15.82;9.73;;;7.40;90.30;;;;;;5115775;28;20506;-48
2024/01/01 02:23:37;;;;;;;17.55;9.63;;;7.50;90.20;;;;;;5115319;27;20371;-53
2024/01/01 02:26:04;;;;;;;15.80;9.48;;;7.50;90.10;;;;;;5115644;28;20055;-47
2024/01/01 02:28:30;;;;;;;22.23;11.82;;;7.50;90.00;;;;;;5122000;27;20035;-48
2024/01/01 02:30:57;;;;;;;17.33;11.52;;;7.50;89.80;;;;;;5121111;27;20035;-49
2024/01/01 02:33:23;;;;;;;17.20;9.68;;;7.50;89.50;;;;;;5129828;27;20102;-47
2024/01/01 02:35:50;;;;;;;20.98;11.23;;;7.50;89.50;;;;;;5116956;27;20092;-47
2024/01/01 02:38:17;;;;;;;20.65;12.45;;;7.50;89.50;;;;;;5108762;28;20015;-49
2024/01/01 02:40:46;;;;;;;22.27;13.68;;;7.50;89.50;;;;;;5132211;27;20031;-48
2024/01/01 02:43:13;;;;;;;19.70;13.18;;;7.50;89.50;;;;;;5127136;27;20363;-51
2024/01/01 02:45:39;;;;;;;24.20;12.73;;;7.50;89.30;;;;;;5115468;28;20107;-49
2024/01/01 02:48:07;;;;;;;22.08;13.60;;;7.50;89.30;;;;;;5114810;27;20055;-47
2024/01/01 02:50:33;;;;;;;25.27;14.25;;;7.50;89.30;;;;;;5114926;28;20037;-49
2024/01/01 02:53:03;;;;;;;22.52;13.35;;;7.50;89.30;;;;;;5107749;28;20063;-47
2024/01/01 02:55:30;;;;;;;23.95;14.90;;;7.50;89.10;;;;;;5114744;27;20024;-47
2024/01/01 02:57:57;;;;;;;23.70;13.60;;;7.50;89.00;;;;;;5115046;28;20433;-51
2024/01/01 03:00:28;;;;;;;18.38;12.07;;;7.60;89.10;;;;;;5119272;27;20448;-51
2024/01/01 03:02:54;;;;;;;21.23;13.07;;;7.60;89.30;;;;;;5119440;27;20593;-48
2024/01/01 03:05:25;;;;;;;22.10;14.68;;;7.60;89.10;;;;;;5114961;27;20039;-48
2024/01/01 03:07:51;;;;;;;21.08;12.20;;;7.60;89.20;;;;;;5131664;27;20055;-56
2024/01/01 03:10:22;;;;;;;22.00;12.93;;;7.60;89.20;;;;;;5116285;27;20100;-57
2024/01/01 03:12:49;;;;;;;21.02;14.35;;;7.60;89.70;;;;;;5118013;27;20049;-53
2024/01/01 03:15:15;;;;;;;21.48;15.00;;;7.60;90.00;;;;;;5123149;27;20032;-53
2024/01/01 03:17:42;;;;;;;23.70;13.05;;;7.50;90.10;;;;;;5121284;27;20033;-54
2024/01/01 03:20:09;;;;;;;19.48;11.82;;;7.50;90.20;;;;;;5122223;27;20437;-51
2024/01/01 03:22:36;;;;;;;23.08;12.60;;;7.40;90.40;;;;;;5120861;27;20080;-54
2024/01/01 03:25:05;;;;;;;22.40;12.38;;;7.40;90.20;;;;;;5112206;27;20106;-50
2024/01/01 03:27:32;;;;;;;27.47;12.60;;;7.50;90.10;;;;;;5128011;27;20039;-56
2024/01/01 03:29:59;;;;;;;21.83;12.43;;;7.50;90.00;;;;;;5121931;27;20437;-57
2024/01/01 03:32:24;;;;;;;20.77;11.35;;;7.50;89.90;;;;;;5112600;27;20028;-60
2024/01/01 03:34:52;;;;;;;22.20;13.27;;;7.50;89.90;;;;;;5111674;28;20098;-57
2024/01/01 03:37:19;;;;;;;17.23;11.15;;;7.50;90.10;;;;;;5104501;28;20382;-58
2024/01/01 03:39:45;;;;;;;19.67;11.38;;;7.50;90.10;;;;;;5114319;28;20360;-61
2024/01/01 03:42:11;;;;;;;18.40;10.75;;;7.50;90.10;;;;;;5121794;27;20098;-61
2024/01/01 03:44:37;;;;;;;17.27;9.70;;;7.50;90.10;;;;;;5102005;28;20372;-60
2024/01/01 03:47:03;;;;;;;20.63;11.45;;;7.50;90.10;;;;;;5111366;28;20039;-56
2024/01/01 03:49:30;;;;;;;19.10;11.25;;;7.50;90.10;;;;;;5113326;28;20039;-56
2024/01/01 03:51:57;;;;;;;21.65;12.20;;;7.50;90.10;;;;;;5110343;27;20107;-56
2024/01/01 03:54:24;;;;;;;23.13;10.73;;;7.50;90.00;;;;;;5118528;27;20019;-57
2024/01/01 03:56:51;;;;;;;15.07;9.93;;;7.50;90.00;;;;;;5098693;27;20132;-53
2024/01/01 03:59:17;;;;;;;15.55;9.63;;;7.50;90.10;;;;;;5095928;28;20364;-59
2024/01/01 04:01:43;;;;;;;18.08;12.02;;;7.50;90.10;;;;;;5117222;27;20031;-59
2024/01/01 04:04:10;;;;;;;22.20;10.00;;;7.40;90.30;;;;;;5116662;27;20472;-57
2024/01/01 04:06:37;;;;;;;22.95;10.85;;;7.40;90.30;;;;;;5133736;27;20344;-52
2024/01/01 04:09:04;;;;;;;17.25;9.77;;;7.40;90.40;;;;;;5127193;27;20121;-54
2024/01/01 04:11:33;;;;;;;20.55;9.57;;;7.40;90.30;;;;;;5119986;27;20027;-52
2024/01/01 04:14:02;;;;;;;18.60;9.20;;;7.40;90.00;;;;;;5130165;27;20105;-56
2024/01/01 04:16:32;;;;;;;15.98;10.73;;;7.40;89.90;;;;;;5125274;27;20032;-53
2024/01/01 04:18:59;;;;;;;17.30;8.82;;;7.40;89.70;;;;;;5120958;27;20027;-53
2024/01/01 04:21:25;;;;;;;14.82;8.98;;;7.40;89.60;;;;;;5127605;27;20031;-52
2024/01/01 04:23:54;;;;;;;17.40;9.20;;;7.50;89.30;;;;;;5113035;27;20030;-54
2024/01/01 04:26:21;;;;;;;21.50;9.63;;;7.50;89.30;;;;;;5112637;28;20026;-53
2024/01/01 04:28:47;;;;;;;22.60;9.85;;;7.50;89.20;;;;;;5113114;28;20040;-61
2024/01/01 04:31:13;;;;;;;15.73;9.02;;;7.50;89.30;;;;;;5113151;28;20326;-60
2024/01/01 04:33:40;;;;;;;15.95;9.23;;;7.40;89.50;;;;;;5110119;27;20070;-62
2024/01/01 04:36:07;;;;;;;17.85;9.32;;;7.50;89.70;;;;;;5108875;27;20393;-62
2024/01/01 04:38:34;;;;;;;15.18;9.27;;;7.50;90.00;;;;;;5111067;27;20026;-62
2024/01/01 04:41:01;;;;;;;21.33;10.80;;;7.40;90.10;;;;;;5127837;27;20375;-63
2024/01/01 04:43:30;;;;;;;17.75;8.77;;;7.40;90.40;;;;;;5113457;28;20062;-62
2024/01/01 04:45:57;;;;;;;21.73;9.63;;;7.40;90.80;;;;;;5094004;28;20084;-62
2024/01/01 04:48:23;;;;;;;16.60;8.65;;;7.30;91.00;;;;;;5112905;28;20110;-62
2024/01/01 04:50:53;;;;;;;20.42;9.77;;;7.30;91.30;;;;;;5102263;28;20167;-62
2024/01/01 04:53:22;;;;;;;18.23;9.45;;;7.30;91.50;;;;;;5113131;28;20020;-61
2024/01/01 04:55:49;;;;;;;24.35;9.55;;;7.20;91.80;;;;;;5129318;27;20031;-61
2024/01/01 04:58:16;;;;;;;14.63;8.23;;;7.20;92.10;;;;;;5106215;28;20102;-61
2024/01/01 05:00:43;;;;;;;17.98;9.23;;;7.20;92.30;;;;;;5122381;27;20032;-60
2024/01/01 05:03:08;;;;;;;19.95;10.82;;;7.20;92.40;;;;;;5114389;27;20445;-53
2024/01/01 05:05:35;;;;;;;18.65;8.32;;;7.10;92.40;;;;;;5127355;27;20054;-60
2024/01/01 05:08:01;;;;;;;17.40;8.02;;;7.10;92.70;;;;;;5108360;28;20055;-58
2024/01/01 05:10:28;;;;;;;16.20;7.45;;;7.10;92.70;;;;;;5113043;28;20119;-58
2024/01/01 05:12:55;;;;;;;16.23;7.85;;;7.10;92.70;;;;;;5109729;28;20126;-57
2024/01/01 05:15:25;;;;;;;13.52;7.55;;;7.10;92.70;;;;;;5112679;28;20043;-56
2024/01/01 05:17:52;;;;;;;15.02;7.40;;;7.10;92.70;;;;;;5114546;28;20457;-51
2024/01/01 05:20:18;;;;;;;16.52;8.52;;;7.00;92.60;;;;;;5119291;28;20107;-53
2024/01/01 05:22:45;;;;;;;12.35;6.90;;;7.00;92.70;;;;;;5118043;28;20037;-56
2024/01/01 05:25:12;;;;;;;12.02;6.35;;;7.00;92.70;;;;;;5110907;28;20028;-52
2024/01/01 05:27:39;;;;;;;12.43;6.43;;;7.00;92.60;;;;;;5112545;28;20032;-52
2024/01/01 05:30:09;;;;;;;13.50;5.82;;;7.00;92.60;;;;;;5122873;27;20028;-49
2024/01/01 05:32:35;;;;;;;11.23;5.03;;;7.00;92.40;;;;;;5103866;28;20127;-54
2024/01/01 05:35:01;;;;;;;8.45;4.28;;;7.00;92.30;;;;;;5128382;27;20106;-49
2024/01/01 05:37:28;;;;;;;8.00;4.05;;;7.00;92.00;;;;;;5109581;28;20507;-48
2024/01/01 05:39:55;;;;;;;6.47;3.50;;;7.00;91.90;;;;;;5117683;28;20098;-53
2024/01/01 05:42:22;;;;;;;10.15;4.47;;;7.00;91.80;;;;;;5117856;27;20429;-53
2024/01/01 05:44:49;;;;;;;11.85;4.57;;;7.00;91.70;;;;;;5117947;27;20037;-51
2024/01/01 05:47:17;;;;;;;11.48;4.90;;;7.00;91.80;;;;;;5121214;27;20027;-50
2024/01/01 05:49:44;;;;;;;10.27;4.43;;;6.90;91.90;;;;;;5080503;27;20036;-53
2024/01/01 05:52:11;;;;;;;10.38;3.92;;;7.00;91.90;;;;;;5119201;27;20019;-50
2024/01/01 05:54:38;;;;;;;9.95;4.13;;;6.90;91.90;;;;;;5116215;27;20066;-51
2024/01/01 05:57:05;;;;;;;8.40;3.22;;;6.90;92.00;;;;;;5113707;27;20019;-50
2024/01/01 05:59:32;;;;;;;8.63;3.42;;;6.90;92.10;;;;;;5116258;27;20027;-50
2024/01/01 06:01:57;;;;;;;12.77;3.60;;;6.90;92.10;;;;;;5132519;27;20468;-49
2024/01/01 06:04:26;;;;;;;10.73;3.28;;;6.90;92.10;;;;;;5115069;27;20027;-52
2024/01/01 06:06:53;;;;;;;8.40;3.88;;;6.90;92.30;;;;;;5118756;27;20031;-50
2024/01/01 06:09:20;;;;;;;9.77;2.85;;;6.90;92.20;;;;;;5112299;28;20444;-52
2024/01/01 06:11:47;;;;;;;10.52;3.28;;;6.90;92.10;;;;;;5129161;27;20023;-54
2024/01/01 06:14:14;;;;;;;9.50;2.95;;;6.90;92.20;;;;;;5118400;27;20425;-55
2024/01/01 06:16:44;;;;;;;6.95;2.85;;;6.90;92.20;;;;;;5136750;27;20030;-56
2024/01/01 06:19:12;;;;;;;10.90;3.05;;;6.90;92.30;;;;;;5117646;27;20023;-54
2024/01/01 06:21:41;;;;;;;10.40;3.55;;;6.90;92.40;;;;;;5141019;27;20054;-52
2024/01/01 06:24:07;;;;;;;8.45;2.95;;;6.90;92.40;;;;;;5111974;28;20028;-54
2024/01/01 06:26:34;;;;;;;6.32;3.10;;;6.90;92.50;;;;;;5126065;27;20041;-52
2024/01/01 06:29:04;;;;;;;6.43;2.63;;;6.90;92.50;;;;;;5104831;28;20149;-60
2024/01/01 06:31:30;;;;;;;9.60;3.40;;;6.90;92.50;;;;;;5114417;28;20437;-60
2024/01/01 06:33:56;;;;;;;12.15;4.22;;;6.80;92.60;;;;;;5116648;27;20023;-60
2024/01/01 06:36:23;;;;;;;9.88;2.45;;;6.90;92.70;;;;;;5115163;28;20322;-59
2024/01/01 06:38:50;;;;;;;6.85;2.30;;;6.80;92.70;;;;;;5121501;27;20106;-58
2024/01/01 06:41:17;;;;;;;7.35;2.45;;;6.80;92.80;;;;;;5135962;27;20035;-54
2024/01/01 06:43:43;;;;;;;6.50;2.13;;;6.80;92.70;;;;;;5131214;27;20043;-57
2024/01/01 06:46:10;;;;;;;6.18;2.20;;;6.80;92.70;;;;;;5116030;27;20027;-57
2024/01/01 06:48:37;;;;;;;7.75;2.50;;;6.80;92.70;;;;;;5119419;27;20039;-58
2024/01/01 06:51:14;;;;;;;8.32;2.63;;;6.70;92.80;;;;;;5130044;27;20020;-55
2024/01/01 06:53:40;;;;;;;7.07;2.15;;;6.70;93.00;;;;;;5128561;27;20019;-54
2024/01/01 06:56:07;;;;;;;8.30;2.65;;;6.70;93.20;;;;;;5127257;27;20043;-57
2024/01/01 06:58:33;;;;;;;5.82;2.03;;;6.70;93.20;;;;;;5127416;27;20440;-56
2024/01/01 07:01:02;;;;;;;7.15;2.53;;;6.70;93.20;;;;;;5134780;27;20092;-54
2024/01/01 07:03:31;;;;;;;5.32;2.08;;;6.70;93.20;;;;;;5113550;27;20030;-52
2024/01/01 07:05:58;;;;;;;8.10;2.25;;;6.70;93.20;;;;;;5121132;27;20055;-52
2024/01/01 07:08:25;;;;;;;8.80;2.13;;;6.70;93.20;;;;;;5113650;28;20097;-51
2024/01/01 07:10:52;;;;;;;6.13;1.73;;;6.70;93.20;;;;;;5107402;28;20098;-51
2024/01/01 07:13:17;;;;;;;6.53;2.22;;;6.60;93.20;;;;;;5095431;28;20468;-51
2024/01/01 07:15:44;;;;;;;6.65;2.28;;;6.60;93.30;;;;;;5127919;27;20040;-62
2024/01/01 07:18:11;;;;;;;4.85;1.98;;;6.70;93.20;;;;;;5101818;28;20038;-61
2024/01/01 07:20:36;;;;;;;5.00;2.13;;;6.60;93.20;;;;;;5131201;27;20028;-56
2024/01/01 07:23:03;;;;;;;6.50;1.77;;;6.60;93.30;;;;;;5103781;28;20016;-60
2024/01/01 07:25:30;;;;;;;4.32;1.48;;;6.60;93.30;;;;;;5106525;28;20024;-61
2024/01/01 07:27:57;;;;;;;9.00;3.38;;;6.70;93.30;;;;;;5105528;28;20069;-60
2024/01/01 07:30:23;;;;;;;7.05;1.83;;;6.70;93.30;;;;;;5105340;28;20035;-59
2024/01/01 07:32:50;;;;;;;4.65;1.85;;;6.70;93.20;;;;;;5095094;28;20039;-60
2024/01/01 07:35:17;;;;;;;7.43;2.15;;;6.60;93.30;;;;;;5096392;28;20079;-57
2024/01/01 07:37:45;;;;;;;7.22;1.70;;;6.60;93.50;;;;;;5098107;28;20024;-59
2024/01/01 07:40:12;;;;;;;5.18;1.70;;;6.60;93.60;;;;;;5098336;28;20028;-54
2024/01/01 07:42:41;;;;;;;6.00;1.90;;;6.60;93.70;;;;;;5094459;28;20437;-51
2024/01/01 07:45:10;;;;;;;5.95;1.88;;;6.60;93.80;;;;;;5097450;28;20035;-57
2024/01/01 07:47:37;;;;;;;7.72;2.85;;;6.60;93.90;;;;;;5092542;28;20039;-60
2024/01/01 07:50:06;;;;;;;10.35;2.17;;;6.60;94.00;;;;;;5092960;28;20023;-56
2024/01/01 07:52:36;;;;;;;6.60;2.03;;;6.60;94.10;;;;;;5091309;28;20019;-54
2024/01/01 07:55:03;;;;;;;8.27;2.15;;;6.60;94.20;;;;;;5092385;28;20123;-57
2024/01/01 07:57:29;;;;;;;8.65;2.53;;;6.60;94.30;;;;;;5091338;28;20081;-59
2024/01/01 07:59:58;;;;;;;6.57;2.05;;;6.60;94.30;;;;;;5074403;28;20651;-58
2024/01/01 08:02:25;;;;;;;5.90;2.42;;;6.60;94.40;;;;;;5098509;28;20052;-55
2024/01/01 08:04:50;;;;;;;9.30;2.83;;;6.70;94.40;;;;;;5132808;27;20549;-53
2024/01/01 08:07:17;;;;;;;6.18;2.65;;;6.70;94.50;;;;;;5112375;27;20079;-52
2024/01/01 08:09:45;;;;;;;5.22;1.90;;;6.70;94.50;;;;;;5120630;27;20043;-49
2024/01/01 08:12:12;;;;;;;6.78;2.80;;;6.70;94.60;;;;;;5116104;27;20459;-53
2024/01/01 08:14:40;;;;;;;5.88;2.50;;;6.70;94.70;;;;;;5114158;27;20019;-50
2024/01/01 08:17:08;;;;;;;7.15;2.55;;;6.70;94.70;;;;;;5120589;27;20015;-52
2024/01/01 08:19:35;;;;;;;8.98;4.43;;;6.70;94.80;;;;;;5115894;27;20015;-49
2024/01/01 08:22:02;;;;;;;6.88;2.60;;;6.80;94.80;;;;;;5113321;27;20109;-50
2024/01/01 08:24:29;;;;;;;13.63;2.70;;;6.80;94.80;;;;;;5114833;27;20030;-48
2024/01/01 08:26:56;;;;;;;10.48;3.65;;;6.80;94.80;;;;;;5117905;27;20015;-50
2024/01/01 08:29:21;;;;;;;8.25;2.30;;;6.80;94.80;;;;;;5112798;27;20015;-50
2024/01/01 08:31:48;;;;;;;9.95;3.42;;;6.90;94.90;;;;;;5112625;27;20069;-48
2024/01/01 08:34:15;;;;;;;12.93;3.55;;;6.90;94.80;;;;;;5111902;28;20476;-49
2024/01/01 08:36:42;;;;;;;16.48;7.13;;;6.90;94.80;;;;;;5113427;28;20031;-50
2024/01/01 08:39:09;;;;;;;9.88;2.95;;;6.90;94.80;;;;;;5125555;27;20023;-48
2024/01/01 08:41:45;;;;;;;15.13;4.53;;;6.90;94.70;;;;;;5104967;27;20031;-57
2024/01/01 08:44:12;;;;;;;9.77;2.60;;;6.90;94.80;;;;;;5113654;28;20111;-57
2024/01/01 08:46:40;;;;;;;12.70;3.33;;;7.00;94.70;;;;;;5098153;28;20061;-55
2024/01/01 08:49:07;;;;;;;9.25;3.72;;;6.90;94.60;;;;;;5116892;27;20668;-54
2024/01/01 08:51:34;;;;;;;9.13;3.25;;;6.90;94.60;;;;;;5112960;28;20023;-56
2024/01/01 08:54:01;;;;;;;11.52;2.90;;;7.00;94.50;;;;;;5111965;28;20024;-52
2024/01/01 08:56:28;;;;;;;10.05;3.65;;;7.00;94.50;;;;;;5112516;28;20012;-53
2024/01/01 08:58:54;;;;;;;13.68;3.20;;;6.90;94.50;;;;;;5112707;28;20039;-50
2024/01/01 09:01:22;;;;;;;8.32;3.20;;;7.00;94.50;;;;;;5112514;28;20038;-49
2024/01/01 09:03:47;;;;;;;11.55;3.72;;;7.00;94.40;;;;;;5115152;27;20023;-52
2024/01/01 09:06:14;;;;;;;10.85;3.85;;;7.10;94.40;;;;;;5114173;27;20088;-49
2024/01/01 09:08:43;;;;;;;8.52;3.13;;;7.10;94.40;;;;;;5116022;27;20036;-51
2024/01/01 09:11:10;;;;;;;10.75;3.10;;;7.10;94.40;;;;;;5119591;27;20023;-54
2024/01/01 09:13:37;;;;;;;12.32;3.83;;;7.10;94.30;;;;;;5122631;27;20035;-49
2024/01/01 09:16:07;;;;;;;11.27;3.13;;;7.20;94.30;;;;;;5116962;27;20538;-51
2024/01/01 09:18:34;;;;;;;6.68;2.28;;;7.20;94.30;;;;;;5112897;28;20041;-52
2024/01/01 09:20:59;;;;;;;7.63;2.78;;;7.20;94.20;;;;;;5117531;28;20348;-53
2024/01/01 09:23:27;;;;;;;8.50;2.90;;;7.20;94.10;;;;;;5116948;28;20032;-55
2024/01/01 09:25:54;;;;;;;7.90;2.58;;;7.20;94.00;;;;;;5095050;28;20019;-54
2024/01/01 09:28:21;;;;;;;8.43;2.60;;;7.20;93.90;;;;;;5114293;27;20023;-57
2024/01/01 09:30:47;;;;;;;7.10;2.42;;;7.20;93.90;;;;;;5094005;28;20067;-56
2024/01/01 09:33:14;;;;;;;7.70;2.22;;;7.20;93.90;;;;;;5108618;28;20051;-55
2024/01/01 09:35:42;;;;;;;6.90;1.90;;;7.10;93.80;;;;;;5125620;27;20052;-54
2024/01/01 09:38:09;;;;;;;5.32;2.55;;;7.10;93.80;;;;;;5105954;28;20016;-56
2024/01/01 09:40:36;;;;;;;5.47;2.42;;;7.00;93.70;;;;;;5108987;28;20099;-55
2024/01/01 09:43:03;;;;;;;5.68;1.92;;;7.00;93.70;;;;;;5102378;28;20054;-52
2024/01/01 09:45:32;;;;;;;3.47;1.00;;;6.90;93.60;;;;;;5101454;28;20020;-53
2024/01/01 09:47:59;;;;;;;4.97;1.10;;;6.90;93.20;;;;;;5115410;28;20024;-54
2024/01/01 09:50:26;;;;;;;5.57;1.60;;;6.80;93.10;;;;;;5113123;28;20296;-53
2024/01/01 09:52:59;;;;;;;7.68;1.80;;;6.80;93.20;;;;;;5100411;28;20528;-52
2024/01/01 09:55:27;;;;;;;2.55;0.95;;;6.90;93.40;;;;;;5098405;28;20493;-50
2024/01/01 09:57:57;;;;;;;2.58;0.70;;;6.80;93.20;;;;;;5101209;28;20036;-49
2024/01/01 10:00:24;;;;;;;3.53;1.00;;;6.70;93.00;;;;;;5095757;28;20030;-48
2024/01/01 10:02:51;;;;;;;6.57;0.70;;;6.60;92.80;;;;;;5095085;28;20163;-50
2024/01/01 10:05:18;;;;;;;3.15;1.27;;;6.60;92.90;;;;;;5104038;28;20487;-49
2024/01/01 10:07:47;;;;;;;3.13;0.77;;;6.60;92.90;;;;;;5093649;28;20057;-50
2024/01/01 10:10:27;;;;;;;3.88;0.90;;;6.60;92.90;;;;;;5076172;28;20031;-49
2024/01/01 10:13:10;;;;;;;4.53;1.00;;;6.70;93.10;;;;;;5083405;28;20458;-49
2024/01/01 10:15:41;;;;;;;6.28;0.98;;;6.70;93.20;;;;;;5078537;28;20131;-50
2024/01/01 10:18:11;;;;;;;5.28;1.30;;;6.80;93.30;;;;;;5078825;28;20025;-55
2024/01/01 10:20:39;;;;;;;5.32;1.13;;;6.80;93.50;;;;;;5084622;28;20051;-52
2024/01/01 10:23:27;;;;;;;4.80;1.60;;;6.80;93.50;;;;;;5076668;28;20579;-52
2024/01/01 10:26:04;;;;;;;4.22;1.02;;;6.80;93.60;;;;;;5090474;28;20028;-53
2024/01/01 10:28:35;;;;;;;3.20;1.33;;;6.90;93.70;;;;;;5082450;28;20043;-50
2024/01/01 10:31:02;;;;;;;4.55;1.65;;;6.80;93.70;;;;;;5079996;28;20024;-49
2024/01/01 10:33:33;;;;;;;6.72;2.00;;;6.90;93.80;;;;;;5087493;28;20031;-51
2024/01/01 10:36:02;;;;;;;4.82;2.33;;;6.90;93.80;;;;;;5090265;28;20118;-52
2024/01/01 10:38:31;;;;;;;4.72;1.95;;;6.90;93.90;;;;;;5087353;28;20081;-49
2024/01/01 10:41:00;;;;;;;2.20;1.17;;;7.00;93.90;;;;;;5081744;28;20020;-51
2024/01/01 10:43:28;;;;;;;2.22;1.08;;;7.00;93.90;;;;;;5094032;28;20024;-59
2024/01/01 10:46:07;;;;;;;5.60;1.83;;;7.00;93.70;;;;;;5100148;28;20119;-55
2024/01/01 10:48:37;;;;;;;6.78;1.45;;;7.00;93.70;;;;;;5086981;28;20028;-57
2024/01/01 10:51:42;;;;;;;4.28;1.67;;;7.00;93.60;;;;;;5084920;28;20040;-57
2024/01/01 10:54:26;;;;;;;3.78;1.17;;;7.00;93.60;;;;;;5087689;28;20449;-52
2024/01/01 10:57:28;;;;;;;4.03;1.33;;;6.90;93.50;;;;;;5094672;28;20027;-58
2024/01/01 11:00:26;;;;;;;4.00;1.95;;;6.90;93.50;;;;;;5084101;28;20032;-58
2024/01/01 11:02:53;;;;;;;4.40;1.40;;;6.80;93.30;;;;;;5079527;28;20026;-59
2024/01/01 11:05:34;;;;;;;4.63;1.70;;;6.80;93.30;;;;;;5079488;28;20055;-57
2024/01/01 11:08:02;;;;;;;6.38;2.45;;;6.70;93.30;;;;;;5084937;28;20139;-57
2024/01/01 11:10:44;;;;;;;3.72;1.85;;;6.70;93.30;;;;;;5098123;28;20406;-52
2024/01/01 11:13:34;;;;;;;3.78;2.28;;;6.70;93.20;;;;;;5090257;28;20047;-51
2024/01/01 11:16:19;;;;;;;3.08;1.35;;;6.60;93.20;;;;;;5088205;28;20032;-50
2024/01/01 11:18:47;;;;;;;2.70;1.25;;;6.60;93.20;;;;;;5093077;28;20026;-50
2024/01/01 11:21:26;;;;;;;3.22;0.70;;;6.60;93.10;;;;;;5094216;28;20012;-52
2024/01/01 11:23:54;;;;;;;2.28;0.90;;;6.70;93.20;;;;;;5078519;28;20028;-50
2024/01/01 11:26:40;;;;;;;2.22;1.02;;;6.70;93.10;;;;;;5094248;28;20066;-48
2024/01/01 11:29:29;;;;;;;2.40;1.00;;;6.70;93.00;;;;;;5094104;28;20039;-55
2024/01/01 11:32:05;;;;;;;1.95;0.82;;;6.70;93.00;;;;;;5098676;28;20031;-55
2024/01/01 11:34:35;;;;;;;1.65;0.80;;;6.70;92.90;;;;;;5102377;28;20035;-56
2024/01/01 11:37:02;;;;;;;3.58;1.10;;;6.70;93.10;;;;;;5107222;28;20034;-56
2024/01/01 11:39:29;;;;;;;4.13;1.23;;;6.70;93.20;;;;;;5091552;28;20099;-53
2024/01/01 11:41:58;;;;;;;5.25;1.73;;;6.80;93.30;;;;;;5092018;28;20023;-54
2024/01/01 11:44:25;;;;;;;7.97;3.38;;;6.90;93.30;;;;;;5095785;28;20016;-49
2024/01/01 11:46:56;;;;;;;4.00;1.70;;;6.90;93.30;;;;;;5109442;28;20054;-52
2024/01/01 11:49:23;;;;;;;3.35;1.63;;;6.90;93.40;;;;;;5100905;28;20035;-51
2024/01/01 11:51:57;;;;;;;4.53;2.00;;;6.90;93.40;;;;;;5112992;28;20026;-50
2024/01/01 11:54:29;;;;;;;4.80;1.63;;;7.00;93.30;;;;;;5094612;28;20542;-51
2024/01/01 11:56:57;;;;;;;4.45;1.77;;;7.00;93.20;;;;;;5090636;28;20020;-51
2024/01/01 11:59:24;;;;;;;2.75;1.35;;;7.00;93.20;;;;;;5090898;28;20352;-49
2024/01/01 12:01:51;;;;;;;4.93;1.30;;;7.00;93.10;;;;;;5096666;28;20022;-52
2024/01/01 12:04:19;;;;;;;3.17;0.90;;;7.00;92.80;;;;;;5097703;28;20429;-47
2024/01/01 12:06:51;;;;;;;2.22;0.90;;;7.00;92.70;;;;;;5093243;28;20058;-49
2024/01/01 12:09:20;;;;;;;3.20;0.88;;;7.00;92.80;;;;;;5120714;27;20046;-49
2024/01/01 12:12:12;;;;;;;3.63;0.80;;;7.00;92.60;;;;;;5109350;28;20027;-50
2024/01/01 12:14:40;;;;;;;4.47;1.60;;;7.00;92.40;;;;;;5126408;27;20028;-49
2024/01/01 12:17:07;;;;;;;2.90;0.70;;;7.00;92.50;;;;;;5115768;27;20086;-48
2024/01/01 12:19:36;;;;;;;2.17;1.15;;;7.10;92.40;;;;;;5114253;27;20566;-49
2024/01/01 12:22:03;;;;;;;4.68;0.75;;;7.20;92.40;;;;;;5111230;27;20120;-47
2024/01/01 12:24:30;;;;;;;3.42;1.30;;;7.30;92.60;;;;;;5116500;27;20038;-47
2024/01/01 12:27:01;;;;;;;3.50;1.25;;;7.40;92.60;;;;;;5114746;27;20024;-48
2024/01/01 12:29:29;;;;;;;5.05;1.20;;;7.60;92.90;;;;;;5112803;28;20020;-49
2024/01/01 12:31:57;;;;;;;4.82;1.52;;;7.70;92.90;;;;;;5114213;27;20016;-48
2024/01/01 12:34:24;;;;;;;2.38;0.93;;;7.70;92.70;;;;;;5112586;28;20024;-47
2024/01/01 12:36:51;;;;;;;3.10;1.33;;;7.80;92.50;;;;;;5117326;27;20342;-52
2024/01/01 12:39:20;;;;;;;6.75;1.85;;;7.90;92.40;;;;;;5112792;27;20775;-50
2024/01/01 12:41:48;;;;;;;8.70;1.77;;;7.90;92.20;;;;;;5112717;28;20035;-52
2024/01/01 12:44:14;;;;;;;6.97;2.33;;;8.00;92.10;;;;;;5109774;27;20035;-50
2024/01/01 12:46:41;;;;;;;4.10;1.55;;;7.90;92.10;;;;;;5116894;27;20218;-50
2024/01/01 12:49:07;;;;;;;7.25;1.80;;;8.00;92.00;;;;;;5112040;28;20027;-49
2024/01/01 12:51:35;;;;;;;8.90;2.42;;;8.10;92.10;;;;;;5126479;27;20080;-48
2024/01/01 12:54:02;;;;;;;8.68;2.20;;;8.20;92.00;;;;;;5118878;27;20023;-47
2024/01/01 12:56:29;;;;;;;6.38;1.50;;;8.20;91.90;;;;;;5116862;27;20050;-50